Impacts TAF Board
For situational awareness. Not to be used for flight planning purposes.
IDs:

KMDW - Chicago/Midway Intl, IL, US

Issued at 2330 UTC 04 Jul 2022
Updated at 0014 UTC 05 Jul 2022
Potential Impact None Slight Moderate High
Time2353Z 05/01Z 05/02Z 05/03Z 05/04Z 05/05Z 05/06Z 05/07Z 05/08Z 05/09Z 05/10Z 05/11Z 05/12Z 05/13Z>>
Type OBS PRVL PRVL PRVL PRVL
  [TEMP]  
PRVL
  [TEMP]  
PRVL PRVL PRVL PRVL PRVL PRVL PRVL PRVL
VIS 10 >6 >6 >6 >6
  [1]  
>6
  [1]  
>6 >6 >6 >6 >6 >6 >6 >6
CIG -- 150 150 150 150
  [15]  
150
  [15]  
120 120 120 120 120 -- -- --
Cover SCT BKN BKN BKN BKN
  [OVC]  
BKN
  [OVC]  
BKN BKN BKN BKN BKN SCT SCT SCT
FltCat VFR VFR VFR VFR VFR
  [IFR]  
VFR
  [IFR]  
VFR VFR VFR VFR VFR VFR VFR VFR
WX -- VCSH -- -- --
  [+TSRA]  
--
  [+TSRA]  
-- -- -- -- -- -- -- --
WDir 210 160 200 200 200
[350]
200
[350]
220 220 220 220 220 250 250 250
WSpd 11 9 11 11 11
  [20]  
11
  [20]  
11 11 11 11 11 13 13 13
WGst 20 -- -- -- --
  [35]  
--
  [35]  
-- -- -- -- -- -- -- --
WSHgt -- -- -- -- --
[--]
--
[--]
2000 2000 2000 2000 2000 -- -- --
WSDir -- -- -- -- --
[--]
--
[--]
250 250 250 250 250 -- -- --
WSSpd -- -- -- -- --
[--]
--
[--]
40 40 40 40 40 -- -- --
Raw TAF
KMDW 042330Z 0500/0606 16009KT P6SM VCSH SCT025 BKN150
  FM050200 20011KT P6SM SCT035 BKN150
  TEMPO 0504/0506 35020G35KT 1SM +TSRA BKN015 OVC035CB
  FM050600 22011KT P6SM SCT035 BKN120 WS020/25040KT
  FM051100 25013KT P6SM SCT250
  FM051500 27010KT P6SM SCT040
  FM052000 06009KT P6SM SCT050 BKN250
  PROB30 0600/0604 4SM -TSRA BKN050CB


Raw METAR
KMDW 042353Z 21011G20KT 10SM FEW039 FEW070 SCT120 SCT150 BKN250 28/22 A2994 RMK AO2 RAE31 SLP126 CB DSNT S P0001 60012 T02830217 10317 20267 58005
KMDW 042253Z 16006KT 5SM -RA BR FEW055 SCT070 BKN095 BKN150 27/21 A2997 RMK AO2 LTG DSNT SW AND W RAB40 SLP138 P0007 T02720211
KMDW 042153Z 17005KT 10SM FEW040 BKN095 BKN150 28/21 A2996 RMK AO2 LTG DSNT N RAE03 SLP134 P0000 T02830211

METAR Board
Radar Display
Forecast Discussion
For situational awareness. Not to be used for flight planning purposes.